createdAt,value
2022-11-10T00:00:42.390Z,89.22
2022-11-10T00:03:28.498Z,88.18
2022-11-10T00:06:13.452Z,87.58
2022-11-10T00:08:58.803Z,88.01
2022-11-10T00:11:44.427Z,91.00
2022-11-10T00:14:48.109Z,90.55
2022-11-10T00:17:36.546Z,93.94
2022-11-10T00:20:21.969Z,98.80
2022-11-10T00:23:07.068Z,100.00
2022-11-10T00:25:52.660Z,100.00
2022-11-10T00:28:38.057Z,100.00
2022-11-10T00:31:23.503Z,100.00
2022-11-10T00:34:15.963Z,100.00
2022-11-10T00:37:01.417Z,100.00
2022-11-10T00:39:46.661Z,100.00
2022-11-10T00:42:32.323Z,100.00
2022-11-10T00:45:17.555Z,100.00
2022-11-10T00:48:03.316Z,100.00
2022-11-10T00:50:48.627Z,100.00
2022-11-10T00:53:33.774Z,99.98
2022-11-10T00:56:19.571Z,98.86
2022-11-10T00:59:04.861Z,97.42
2022-11-10T01:01:50.530Z,97.50
2022-11-10T01:04:35.923Z,97.11
2022-11-10T01:07:21.328Z,96.62
2022-11-10T01:10:07.307Z,95.97
2022-11-10T01:12:52.845Z,95.24
2022-11-10T01:15:42.662Z,95.20
2022-11-10T01:18:28.226Z,95.19
2022-11-10T01:21:13.452Z,96.06
2022-11-10T01:23:58.957Z,97.83
2022-11-10T01:26:44.074Z,97.58
2022-11-10T01:29:29.437Z,95.93
2022-11-10T01:32:15.044Z,95.48
2022-11-10T01:35:00.191Z,95.56
2022-11-10T01:37:45.709Z,93.98
2022-11-10T01:40:31.132Z,92.29
2022-11-10T01:43:16.840Z,92.85
2022-11-10T01:46:07.493Z,91.89
2022-11-10T01:48:59.535Z,92.18
2022-11-10T01:52:05.232Z,92.25
2022-11-10T01:54:51.090Z,92.41
2022-11-10T01:57:38.057Z,94.78
2022-11-10T02:00:23.841Z,92.88
2022-11-10T02:03:41.370Z,96.89
2022-11-10T02:06:31.587Z,98.14
2022-11-10T02:09:17.822Z,97.46
2022-11-10T02:12:03.741Z,98.14
2022-11-10T02:14:49.146Z,95.45
2022-11-10T02:17:34.940Z,98.15
2022-11-10T02:20:21.702Z,100.00
2022-11-10T02:23:36.000Z,100.00
2022-11-10T02:26:25.917Z,98.51
2022-11-10T02:29:11.682Z,96.72
2022-11-10T02:31:56.843Z,95.84
2022-11-10T02:34:42.987Z,97.31
2022-11-10T02:37:28.149Z,96.42
2022-11-10T02:40:13.584Z,98.68
2022-11-10T02:42:58.678Z,97.61
2022-11-10T02:45:44.619Z,97.05
2022-11-10T02:48:29.936Z,96.90
2022-11-10T02:51:15.191Z,97.62
2022-11-10T02:54:00.823Z,98.65
2022-11-10T02:56:46.317Z,97.97
2022-11-10T02:59:31.975Z,96.34
2022-11-10T03:02:17.609Z,96.03
2022-11-10T03:05:03.190Z,93.40
2022-11-10T03:07:56.293Z,96.04
2022-11-10T03:10:42.360Z,96.92
2022-11-10T03:13:40.215Z,96.72
2022-11-10T03:16:32.876Z,96.33
2022-11-10T03:19:18.358Z,94.92
2022-11-10T03:22:03.724Z,95.93
2022-11-10T03:24:49.171Z,95.33
2022-11-10T03:27:34.499Z,94.96
2022-11-10T03:30:19.923Z,95.50
2022-11-10T03:33:06.139Z,95.60
2022-11-10T03:35:51.387Z,95.73
2022-11-10T03:38:36.728Z,95.27
2022-11-10T03:41:22.323Z,97.53
2022-11-10T03:44:07.805Z,97.19
2022-11-10T03:46:52.949Z,98.69
2022-11-10T03:49:38.340Z,97.88
2022-11-10T03:52:23.704Z,100.00
2022-11-10T03:55:11.844Z,100.00
2022-11-10T03:58:02.213Z,100.00
2022-11-10T04:00:47.474Z,100.00
2022-11-10T04:03:33.142Z,100.00
2022-11-10T04:06:37.148Z,100.00
2022-11-10T04:09:22.642Z,100.00
2022-11-10T04:12:27.054Z,100.00
2022-11-10T04:15:32.130Z,100.00
2022-11-10T04:18:26.161Z,100.00
2022-11-10T04:21:12.351Z,100.00
2022-11-10T04:23:57.872Z,99.65
2022-11-10T04:26:43.941Z,99.63
2022-11-10T04:29:29.085Z,99.14
2022-11-10T04:32:14.646Z,98.48
2022-11-10T04:35:00.070Z,98.44
2022-11-10T04:37:47.043Z,97.81
2022-11-10T04:40:32.248Z,98.46
2022-11-10T04:43:17.575Z,97.71
2022-11-10T04:46:03.973Z,98.55
2022-11-10T04:48:50.192Z,99.03
2022-11-10T04:51:38.590Z,99.09
2022-11-10T04:54:23.899Z,97.74
2022-11-10T04:57:09.336Z,97.42
2022-11-10T04:59:54.760Z,96.33
2022-11-10T05:02:40.231Z,96.47
2022-11-10T05:05:25.839Z,97.87
2022-11-10T05:08:11.282Z,94.44
2022-11-10T05:10:57.049Z,92.93
2022-11-10T05:13:43.083Z,94.18
2022-11-10T05:16:28.337Z,94.11
2022-11-10T05:19:13.946Z,88.36
2022-11-10T05:21:59.485Z,81.54
2022-11-10T05:24:44.949Z,79.54
2022-11-10T05:27:30.352Z,71.61
2022-11-10T05:30:16.120Z,68.06
2022-11-10T05:33:02.618Z,62.77
2022-11-10T05:35:50.048Z,64.01
2022-11-10T05:38:41.840Z,57.94
2022-11-10T05:41:29.000Z,57.98
2022-11-10T05:44:14.591Z,56.60
2022-11-10T05:47:00.101Z,54.25
2022-11-10T05:49:45.867Z,52.96
2022-11-10T05:52:31.091Z,53.10
2022-11-10T05:55:18.532Z,50.79
2022-11-10T05:58:04.394Z,52.82
2022-11-10T06:00:49.370Z,53.19
2022-11-10T06:03:34.622Z,53.53
2022-11-10T06:06:20.700Z,53.87
2022-11-10T06:09:06.010Z,56.27
2022-11-10T06:11:51.300Z,59.02
2022-11-10T06:14:36.647Z,61.81
2022-11-10T06:17:22.112Z,63.92
2022-11-10T06:20:07.955Z,68.32
2022-11-10T06:23:05.161Z,72.96
2022-11-10T06:25:50.497Z,75.38
2022-11-10T06:28:35.934Z,74.03
2022-11-10T06:31:21.133Z,71.60
2022-11-10T06:34:06.652Z,72.07
2022-11-10T06:36:51.971Z,71.70
2022-11-10T06:39:37.410Z,62.78
2022-11-10T06:42:22.735Z,56.93
2022-11-10T06:45:08.645Z,50.25
2022-11-10T06:48:05.347Z,48.27
2022-11-10T06:50:50.457Z,46.13
2022-11-10T06:53:35.563Z,45.92
2022-11-10T06:56:20.799Z,46.18
2022-11-10T06:59:06.546Z,48.13
2022-11-10T07:01:51.876Z,48.91
2022-11-10T07:04:36.980Z,49.50
2022-11-10T07:07:22.656Z,50.10
2022-11-10T07:10:08.098Z,50.43
2022-11-10T07:13:02.387Z,48.07
2022-11-10T07:15:47.683Z,46.67
2022-11-10T07:18:33.257Z,45.08
2022-11-10T07:21:18.214Z,43.10
2022-11-10T07:24:03.957Z,42.04
2022-11-10T07:26:49.059Z,42.55
2022-11-10T07:29:34.175Z,41.94
2022-11-10T07:32:19.620Z,39.66
2022-11-10T07:35:05.139Z,36.75
2022-11-10T07:37:50.382Z,36.97
2022-11-10T07:40:36.329Z,36.18
2022-11-10T07:43:24.354Z,34.60
2022-11-10T07:46:10.596Z,33.11
2022-11-10T07:48:56.174Z,31.97
2022-11-10T07:51:42.973Z,34.46
2022-11-10T07:54:28.353Z,33.73
2022-11-10T07:57:13.600Z,32.04
2022-11-10T07:59:59.225Z,32.58
2022-11-10T08:02:44.271Z,32.97
2022-11-10T08:05:29.898Z,32.89
2022-11-10T08:08:15.415Z,36.67
2022-11-10T08:11:00.813Z,37.80
2022-11-10T08:13:46.440Z,37.49
2022-11-10T08:16:32.361Z,37.55
2022-11-10T08:19:17.965Z,37.21
2022-11-10T08:22:03.747Z,36.26
2022-11-10T08:24:49.127Z,38.04
2022-11-10T08:27:34.612Z,37.96
2022-11-10T08:30:20.155Z,40.24
2022-11-10T08:33:07.408Z,40.40
2022-11-10T08:35:53.330Z,40.52
2022-11-10T08:38:38.605Z,39.58
2022-11-10T08:41:24.114Z,41.16
2022-11-10T08:44:11.069Z,43.25
2022-11-10T08:46:56.578Z,44.50
2022-11-10T08:49:42.072Z,45.20
2022-11-10T08:52:27.746Z,45.56
2022-11-10T08:55:13.448Z,44.22
2022-11-10T08:58:00.185Z,42.32
2022-11-10T09:00:45.406Z,43.97
2022-11-10T09:03:30.550Z,44.99
2022-11-10T09:06:15.874Z,43.36
2022-11-10T09:09:01.252Z,43.97
2022-11-10T09:11:46.715Z,43.29
2022-11-10T09:14:32.305Z,45.16
2022-11-10T09:17:17.846Z,46.47
2022-11-10T09:20:04.943Z,43.91
2022-11-10T09:22:50.750Z,44.34
2022-11-10T09:25:36.224Z,44.49
2022-11-10T09:28:23.037Z,45.56
2022-11-10T09:31:08.443Z,45.26
2022-11-10T09:33:53.765Z,44.66
2022-11-10T09:36:40.463Z,43.74
2022-11-10T09:39:26.233Z,44.58
2022-11-10T09:42:33.335Z,44.19
2022-11-10T09:45:25.300Z,46.13
2022-11-10T09:48:42.290Z,46.14
2022-11-10T09:51:46.992Z,45.37
2022-11-10T09:54:36.456Z,44.10
2022-11-10T09:57:25.385Z,40.27
2022-11-10T10:00:16.512Z,42.05
2022-11-10T10:03:04.525Z,45.69
2022-11-10T10:06:10.066Z,44.14
2022-11-10T10:09:08.840Z,47.84
2022-11-10T10:12:08.117Z,43.98
2022-11-10T10:15:02.996Z,42.62
2022-11-10T10:17:51.387Z,43.17
2022-11-10T10:20:45.024Z,40.90
2022-11-10T10:24:07.177Z,42.28
2022-11-10T10:26:55.406Z,42.62
2022-11-10T10:29:45.608Z,41.87
2022-11-10T10:32:31.049Z,39.20
2022-11-10T10:35:17.711Z,42.28
2022-11-10T10:38:04.620Z,39.32
2022-11-10T10:40:52.276Z,41.17
2022-11-10T10:43:39.322Z,40.64
2022-11-10T10:46:34.422Z,42.30
2022-11-10T10:49:29.657Z,43.81
2022-11-10T10:52:24.983Z,46.00
2022-11-10T10:55:13.366Z,46.58
2022-11-10T10:58:05.218Z,43.54
2022-11-10T11:01:01.035Z,40.55
2022-11-10T11:03:50.816Z,40.73
2022-11-10T11:06:36.681Z,40.68
2022-11-10T11:09:31.227Z,39.29
2022-11-10T11:12:22.769Z,40.40
2022-11-10T11:15:19.089Z,42.69
2022-11-10T11:18:13.639Z,42.41
2022-11-10T11:21:37.704Z,44.61
2022-11-10T11:24:55.065Z,45.57
2022-11-10T11:28:06.014Z,43.26
2022-11-10T11:31:10.715Z,45.56
2022-11-10T11:34:29.580Z,46.38
2022-11-10T11:38:12.339Z,44.59
2022-11-10T11:41:45.425Z,45.10
2022-11-10T11:44:39.969Z,43.60
2022-11-10T11:48:04.380Z,39.28
2022-11-10T11:50:58.234Z,44.76
2022-11-10T11:54:17.968Z,43.88
2022-11-10T11:57:41.998Z,46.07
2022-11-10T12:00:35.157Z,46.67
2022-11-10T12:04:03.918Z,44.55
2022-11-10T12:07:10.949Z,44.89
2022-11-10T12:10:12.969Z,45.54
2022-11-10T12:13:16.783Z,47.05
2022-11-10T12:16:18.000Z,45.50
2022-11-10T12:19:24.473Z,45.12
2022-11-10T12:22:25.388Z,43.13
2022-11-10T12:25:26.471Z,48.64
2022-11-10T12:28:17.639Z,44.94
2022-11-10T12:31:06.451Z,43.91
2022-11-10T12:34:04.450Z,46.28
2022-11-10T12:36:51.886Z,47.70
2022-11-10T12:39:48.749Z,46.16
2022-11-10T12:42:37.977Z,45.51
2022-11-10T12:45:32.573Z,45.98
2022-11-10T12:48:19.070Z,47.93
2022-11-10T12:51:12.828Z,49.97
2022-11-10T12:53:58.500Z,49.63
2022-11-10T12:57:01.846Z,51.16
2022-11-10T12:59:59.631Z,51.81
2022-11-10T13:02:46.851Z,51.40
2022-11-10T13:05:45.561Z,50.71
2022-11-10T13:08:44.336Z,49.64
2022-11-10T13:11:34.900Z,51.45
2022-11-10T13:14:28.314Z,52.64
2022-11-10T13:17:26.173Z,54.38
2022-11-10T13:20:39.898Z,53.98
2022-11-10T13:23:44.646Z,54.61
2022-11-10T13:26:39.147Z,55.97
2022-11-10T13:29:32.360Z,55.78
2022-11-10T13:32:26.014Z,53.43
2022-11-10T13:35:29.808Z,54.13
2022-11-10T13:38:45.429Z,55.98
2022-11-10T13:41:34.573Z,57.00
2022-11-10T13:44:36.517Z,57.83
2022-11-10T13:47:35.106Z,59.10
2022-11-10T13:50:37.944Z,59.43
2022-11-10T13:53:55.607Z,60.44
2022-11-10T13:57:00.798Z,61.59
2022-11-10T14:00:15.859Z,62.88
2022-11-10T14:03:06.523Z,65.09
2022-11-10T14:06:03.444Z,65.85
2022-11-10T14:08:57.125Z,66.77
2022-11-10T14:11:50.113Z,70.37
2022-11-10T14:14:43.921Z,70.53
2022-11-10T14:17:34.652Z,73.34
2022-11-10T14:20:42.845Z,73.40
2022-11-10T14:23:43.841Z,73.81
2022-11-10T14:26:34.852Z,74.03
2022-11-10T14:29:40.743Z,74.93
2022-11-10T14:32:27.132Z,77.32
2022-11-10T14:35:24.978Z,79.27
2022-11-10T14:38:21.588Z,78.83
2022-11-10T14:41:16.482Z,79.36
2022-11-10T14:44:06.813Z,80.58
2022-11-10T14:46:52.770Z,83.02
2022-11-10T14:49:38.039Z,82.53
2022-11-10T14:52:23.529Z,83.66
2022-11-10T14:55:15.065Z,82.56
2022-11-10T14:58:22.663Z,79.76
2022-11-10T15:01:24.806Z,78.19
2022-11-10T15:04:12.217Z,78.40
2022-11-10T15:06:59.873Z,78.05
2022-11-10T15:10:05.940Z,74.85
2022-11-10T15:13:02.939Z,72.85
2022-11-10T15:15:48.795Z,71.94
2022-11-10T15:18:34.044Z,71.10
2022-11-10T15:21:21.908Z,71.88
2022-11-10T15:24:07.656Z,73.01
2022-11-10T15:26:53.035Z,76.16
2022-11-10T15:29:38.396Z,73.68
2022-11-10T15:32:49.101Z,71.99
2022-11-10T15:35:34.885Z,72.99
2022-11-10T15:38:25.043Z,71.26
2022-11-10T15:41:26.824Z,71.81
2022-11-10T15:44:18.205Z,71.64
2022-11-10T15:47:03.600Z,71.16
2022-11-10T15:49:48.987Z,73.59
2022-11-10T15:52:35.056Z,74.12
2022-11-10T15:55:21.168Z,73.08
2022-11-10T15:58:18.287Z,72.51
2022-11-10T16:01:03.929Z,72.55
2022-11-10T16:03:49.730Z,72.57
2022-11-10T16:06:35.115Z,72.64
2022-11-10T16:09:20.777Z,73.04
2022-11-10T16:12:06.615Z,73.65
2022-11-10T16:14:53.122Z,74.02
2022-11-10T16:17:38.732Z,73.51
2022-11-10T16:20:24.350Z,74.22
2022-11-10T16:23:09.920Z,74.29
2022-11-10T16:25:56.949Z,74.51
2022-11-10T16:28:44.308Z,75.18
2022-11-10T16:31:31.902Z,77.44
2022-11-10T16:34:17.600Z,78.14
2022-11-10T16:37:03.096Z,77.44
2022-11-10T16:39:48.509Z,75.32
2022-11-10T16:42:33.894Z,78.43
2022-11-10T16:45:30.231Z,80.07
2022-11-10T16:48:18.234Z,80.03
2022-11-10T16:51:04.105Z,79.62
2022-11-10T16:53:51.283Z,80.22
2022-11-10T16:56:36.911Z,80.83
2022-11-10T16:59:22.421Z,80.32
2022-11-10T17:02:31.599Z,82.27
2022-11-10T17:05:17.520Z,84.24
2022-11-10T17:08:03.940Z,85.24
2022-11-10T17:10:50.835Z,85.57
2022-11-10T17:13:36.199Z,86.00
2022-11-10T17:16:37.858Z,85.93
2022-11-10T17:19:26.487Z,86.23
2022-11-10T17:22:17.233Z,85.67
2022-11-10T17:25:03.579Z,85.18
2022-11-10T17:27:49.202Z,86.32
2022-11-10T17:30:34.518Z,86.15
2022-11-10T17:33:20.415Z,86.91
2022-11-10T17:36:27.676Z,88.76
2022-11-10T17:39:15.504Z,87.46
2022-11-10T17:42:01.716Z,87.19
2022-11-10T17:44:47.244Z,85.42
2022-11-10T17:47:32.493Z,83.68
2022-11-10T17:50:20.220Z,83.88
2022-11-10T17:53:26.768Z,83.84
2022-11-10T17:56:12.663Z,83.27
2022-11-10T17:58:58.277Z,83.24
2022-11-10T18:01:43.553Z,82.41
2022-11-10T18:04:29.188Z,82.36
2022-11-10T18:07:14.749Z,81.99
2022-11-10T18:10:00.100Z,82.16
2022-11-10T18:12:45.390Z,82.86
2022-11-10T18:15:30.726Z,85.48
2022-11-10T18:18:17.649Z,86.80
2022-11-10T18:21:03.745Z,86.71
2022-11-10T18:23:49.296Z,84.42
2022-11-10T18:26:34.778Z,83.51
2022-11-10T18:29:20.244Z,82.87
2022-11-10T18:32:06.189Z,85.42
2022-11-10T18:34:51.435Z,84.20
2022-11-10T18:37:39.055Z,82.92
2022-11-10T18:40:25.527Z,82.82
2022-11-10T18:43:10.572Z,83.36
2022-11-10T18:45:56.054Z,84.71
2022-11-10T18:48:42.623Z,86.11
2022-11-10T18:51:28.643Z,87.57
2022-11-10T18:54:14.141Z,88.26
2022-11-10T18:56:59.517Z,88.08
2022-11-10T18:59:45.384Z,88.66
2022-11-10T19:02:31.125Z,89.29
2022-11-10T19:05:16.407Z,89.22
2022-11-10T19:08:01.462Z,88.64
2022-11-10T19:10:46.971Z,91.45
2022-11-10T19:13:32.326Z,91.25
2022-11-10T19:16:19.085Z,91.14
2022-11-10T19:19:04.534Z,90.39
2022-11-10T19:21:50.062Z,90.80
2022-11-10T19:24:53.665Z,91.46
2022-11-10T19:27:41.980Z,91.68
2022-11-10T19:30:27.395Z,91.95
2022-11-10T19:33:12.645Z,91.63
2022-11-10T19:36:18.078Z,91.09
2022-11-10T19:39:04.278Z,89.54
2022-11-10T19:41:49.322Z,89.52
2022-11-10T19:44:34.853Z,91.80
2022-11-10T19:47:20.843Z,92.85
2022-11-10T19:50:06.941Z,94.17
2022-11-10T19:52:52.002Z,93.24
2022-11-10T19:55:37.425Z,92.87
2022-11-10T19:58:23.137Z,93.14
2022-11-10T20:01:10.250Z,91.63
2022-11-10T20:03:55.805Z,93.28
2022-11-10T20:06:41.032Z,93.18
2022-11-10T20:09:26.368Z,94.10
2022-11-10T20:12:12.637Z,93.59
2022-11-10T20:14:58.048Z,93.31
2022-11-10T20:17:43.373Z,94.06
2022-11-10T20:20:28.741Z,93.99
2022-11-10T20:23:15.870Z,93.12
2022-11-10T20:26:12.549Z,91.77
2022-11-10T20:28:58.112Z,91.59
2022-11-10T20:31:43.469Z,92.94
2022-11-10T20:34:29.259Z,92.55
2022-11-10T20:37:14.392Z,91.76
2022-11-10T20:40:00.034Z,90.18
2022-11-10T20:42:45.884Z,88.92
2022-11-10T20:45:31.092Z,89.47
2022-11-10T20:48:16.513Z,88.74
2022-11-10T20:51:01.858Z,88.82
2022-11-10T20:53:48.059Z,88.24
2022-11-10T20:56:33.393Z,89.96
2022-11-10T20:59:18.840Z,91.10
2022-11-10T21:02:04.426Z,92.30
2022-11-10T21:04:49.842Z,90.68
2022-11-10T21:07:35.322Z,92.85
2022-11-10T21:10:20.758Z,94.64
2022-11-10T21:13:06.046Z,92.24
2022-11-10T21:15:57.056Z,93.43
2022-11-10T21:18:42.083Z,95.22
2022-11-10T21:21:34.105Z,95.60
2022-11-10T21:24:19.855Z,94.08
2022-11-10T21:27:05.158Z,92.19
2022-11-10T21:29:50.651Z,90.96
2022-11-10T21:32:36.028Z,94.47
2022-11-10T21:35:21.471Z,95.50
2022-11-10T21:38:07.742Z,95.11
2022-11-10T21:40:53.107Z,93.71
2022-11-10T21:43:38.894Z,93.54
2022-11-10T21:46:24.505Z,92.75
2022-11-10T21:49:09.928Z,93.01
2022-11-10T21:51:55.461Z,93.77
2022-11-10T21:54:40.648Z,94.40
2022-11-10T21:57:26.197Z,93.54
2022-11-10T22:00:13.119Z,97.57
2022-11-10T22:03:00.111Z,100.00
2022-11-10T22:05:45.660Z,98.99
2022-11-10T22:08:31.109Z,96.18
2022-11-10T22:11:38.843Z,94.31
2022-11-10T22:14:42.387Z,95.06
2022-11-10T22:17:46.695Z,96.94
2022-11-10T22:20:32.467Z,97.98
2022-11-10T22:23:17.904Z,99.31
2022-11-10T22:26:03.397Z,99.89
2022-11-10T22:28:48.925Z,98.89
2022-11-10T22:31:34.303Z,99.29
2022-11-10T22:34:20.721Z,98.74
2022-11-10T22:37:06.463Z,97.92
2022-11-10T22:40:09.957Z,98.37
2022-11-10T22:43:13.982Z,97.73
2022-11-10T22:45:59.506Z,95.41
2022-11-10T22:48:45.144Z,97.12
2022-11-10T22:51:32.063Z,95.60
2022-11-10T22:54:23.250Z,93.01
2022-11-10T22:57:08.653Z,92.70
2022-11-10T22:59:54.200Z,94.19
2022-11-10T23:02:39.432Z,94.70
2022-11-10T23:05:24.785Z,98.19
2022-11-10T23:08:10.192Z,100.00
2022-11-10T23:11:06.691Z,100.00
2022-11-10T23:13:52.320Z,100.00
2022-11-10T23:16:37.564Z,100.00
2022-11-10T23:19:22.784Z,100.00
2022-11-10T23:22:08.174Z,99.90
2022-11-10T23:24:56.984Z,99.16
2022-11-10T23:27:42.657Z,99.35
2022-11-10T23:30:27.939Z,100.00
2022-11-10T23:33:13.379Z,100.00
2022-11-10T23:35:58.656Z,100.00
2022-11-10T23:38:44.462Z,100.00
2022-11-10T23:41:29.485Z,100.00
2022-11-10T23:44:14.976Z,100.00
2022-11-10T23:47:00.607Z,100.00
2022-11-10T23:49:45.723Z,100.00
2022-11-10T23:52:31.100Z,100.00
2022-11-10T23:55:16.738Z,100.00
2022-11-10T23:58:03.062Z,100.00
